createdAt,value
2022-12-11T00:00:55.540Z,32.73
2022-12-11T00:03:24.392Z,26.73
2022-12-11T00:05:52.783Z,28.90
2022-12-11T00:08:22.933Z,24.50
2022-12-11T00:10:53.212Z,30.63
2022-12-11T00:13:21.792Z,27.73
2022-12-11T00:15:50.377Z,18.80
2022-12-11T00:18:18.958Z,37.83
2022-12-11T00:20:49.481Z,29.27
2022-12-11T00:23:18.174Z,29.47
2022-12-11T00:25:50.753Z,31.83
2022-12-11T00:28:20.613Z,25.97
2022-12-11T00:30:49.372Z,26.03
2022-12-11T00:33:18.363Z,28.17
2022-12-11T00:35:48.792Z,21.00
2022-12-11T00:38:21.881Z,8.60
2022-12-11T00:40:55.354Z,23.90
2022-12-11T00:43:24.246Z,24.13
2022-12-11T00:45:52.791Z,22.83
2022-12-11T00:48:21.945Z,28.47
2022-12-11T00:50:52.068Z,28.40
2022-12-11T00:53:22.165Z,20.13
2022-12-11T00:55:52.588Z,22.90
2022-12-11T00:58:21.029Z,19.10
2022-12-11T01:00:50.779Z,24.97
2022-12-11T01:03:20.311Z,16.43
2022-12-11T01:06:04.160Z,20.13
2022-12-11T01:08:38.300Z,23.13
2022-12-11T01:11:11.020Z,23.70
2022-12-11T01:13:42.974Z,23.70
2022-12-11T01:16:17.042Z,25.93
2022-12-11T01:18:45.814Z,23.70
2022-12-11T01:21:16.557Z,23.43
2022-12-11T01:23:48.315Z,22.53
2022-12-11T01:26:19.090Z,22.63
2022-12-11T01:28:51.086Z,25.00
2022-12-11T01:31:21.051Z,21.73
2022-12-11T01:33:52.279Z,25.20
2022-12-11T01:36:22.768Z,24.60
2022-12-11T01:38:51.972Z,20.10
2022-12-11T01:41:23.326Z,19.07
2022-12-11T01:44:00.618Z,26.30
2022-12-11T01:46:30.876Z,20.20
2022-12-11T01:49:00.471Z,22.90
2022-12-11T01:51:32.879Z,27.80
2022-12-11T01:54:05.422Z,22.80
2022-12-11T01:56:38.682Z,27.37
2022-12-11T01:59:09.841Z,20.13
2022-12-11T02:01:43.588Z,15.77
2022-12-11T02:04:17.258Z,23.87
2022-12-11T02:06:49.074Z,24.03
2022-12-11T02:09:21.368Z,19.13
2022-12-11T02:11:57.499Z,27.80
2022-12-11T02:14:34.733Z,21.40
2022-12-11T02:17:07.286Z,20.00
2022-12-11T02:19:59.936Z,21.90
2022-12-11T02:22:44.393Z,22.80
2022-12-11T02:25:22.529Z,22.20
2022-12-11T02:27:59.175Z,25.80
2022-12-11T02:30:30.232Z,26.00
2022-12-11T02:33:00.232Z,32.00
2022-12-11T02:35:34.999Z,26.33
2022-12-11T02:38:06.888Z,29.37
2022-12-11T02:40:38.616Z,30.77
2022-12-11T02:43:11.501Z,25.10
2022-12-11T02:45:43.059Z,29.40
2022-12-11T02:48:14.400Z,24.00
2022-12-11T02:50:47.358Z,22.90
2022-12-11T02:53:20.435Z,32.17
2022-12-11T02:55:54.310Z,23.77
2022-12-11T02:58:28.427Z,23.13
2022-12-11T03:00:58.621Z,21.30
2022-12-11T03:03:27.837Z,21.87
2022-12-11T03:05:57.490Z,23.57
2022-12-11T03:08:28.059Z,27.23
2022-12-11T03:10:58.351Z,20.53
2022-12-11T03:13:27.668Z,25.47
2022-12-11T03:16:11.422Z,27.47
2022-12-11T03:18:46.445Z,20.87
2022-12-11T03:21:21.084Z,25.70
2022-12-11T03:23:53.793Z,25.37
2022-12-11T03:26:25.067Z,28.90
2022-12-11T03:28:59.238Z,25.57
2022-12-11T03:31:38.279Z,29.60
2022-12-11T03:34:13.748Z,31.53
2022-12-11T03:36:45.839Z,24.67
2022-12-11T03:39:20.359Z,33.43
2022-12-11T03:41:51.755Z,30.13
2022-12-11T03:44:22.184Z,34.70
2022-12-11T03:46:55.238Z,32.17
2022-12-11T03:49:29.404Z,20.20
2022-12-11T03:51:59.486Z,24.37
2022-12-11T03:54:28.865Z,28.10
2022-12-11T03:57:00.827Z,24.07
2022-12-11T03:59:29.705Z,25.83
2022-12-11T04:02:00.409Z,23.57
2022-12-11T04:04:29.065Z,26.60
2022-12-11T04:06:59.584Z,23.73
2022-12-11T04:09:28.207Z,22.00
2022-12-11T04:12:04.707Z,27.63
2022-12-11T04:14:53.605Z,25.27
2022-12-11T04:17:37.713Z,20.60
2022-12-11T04:20:27.399Z,18.10
2022-12-11T04:23:16.059Z,28.90
2022-12-11T04:25:46.271Z,15.03
2022-12-11T04:28:16.104Z,17.77
2022-12-11T04:30:51.799Z,23.10
2022-12-11T04:33:21.814Z,25.13
2022-12-11T04:35:50.338Z,21.07
2022-12-11T04:38:19.260Z,31.37
2022-12-11T04:40:49.479Z,23.90
2022-12-11T04:43:18.312Z,22.60
2022-12-11T04:45:46.918Z,23.27
2022-12-11T04:48:15.441Z,21.33
2022-12-11T04:50:46.446Z,27.87
2022-12-11T04:53:15.818Z,27.13
2022-12-11T04:55:44.200Z,21.43
2022-12-11T04:58:12.564Z,24.97
2022-12-11T05:00:44.049Z,26.23
2022-12-11T05:03:12.319Z,24.50
2022-12-11T05:05:40.788Z,26.17
2022-12-11T05:08:12.180Z,22.90
2022-12-11T05:10:47.138Z,23.67
2022-12-11T05:13:21.486Z,25.67
2022-12-11T05:15:50.548Z,19.23
2022-12-11T05:18:18.881Z,24.90
2022-12-11T05:20:56.373Z,21.73
2022-12-11T05:23:27.201Z,24.37
2022-12-11T05:25:56.330Z,20.27
2022-12-11T05:28:26.300Z,21.57
2022-12-11T05:30:58.374Z,21.50
2022-12-11T05:33:26.975Z,19.73
2022-12-11T05:35:57.771Z,18.40
2022-12-11T05:38:28.258Z,23.87
2022-12-11T05:40:59.282Z,22.00
2022-12-11T05:43:30.084Z,17.40
2022-12-11T05:46:10.893Z,23.43
2022-12-11T05:48:41.544Z,20.43
2022-12-11T05:51:11.662Z,27.40
2022-12-11T05:53:44.356Z,25.23
2022-12-11T05:56:14.870Z,21.53
2022-12-11T05:58:47.700Z,23.30
2022-12-11T06:01:19.896Z,22.13
2022-12-11T06:03:49.196Z,13.03
2022-12-11T06:06:21.642Z,28.43
2022-12-11T06:08:53.276Z,25.33
2022-12-11T06:11:24.394Z,20.13
2022-12-11T06:13:54.331Z,22.97
2022-12-11T06:16:23.578Z,21.23
2022-12-11T06:18:55.822Z,21.40
2022-12-11T06:21:28.952Z,16.13
2022-12-11T06:24:01.573Z,18.87
2022-12-11T06:26:33.396Z,22.70
2022-12-11T06:29:05.296Z,21.23
2022-12-11T06:31:38.534Z,12.80
2022-12-11T06:34:06.898Z,17.63
2022-12-11T06:36:36.065Z,11.13
2022-12-11T06:39:06.501Z,10.03
2022-12-11T06:41:36.773Z,16.03
2022-12-11T06:44:07.746Z,21.03
2022-12-11T06:46:38.069Z,18.33
2022-12-11T06:49:06.560Z,15.37
2022-12-11T06:51:35.027Z,17.13
2022-12-11T06:54:06.582Z,14.27
2022-12-11T06:56:36.395Z,16.27
2022-12-11T06:59:07.458Z,17.63
2022-12-11T07:01:36.309Z,18.53
2022-12-11T07:04:06.236Z,15.67
2022-12-11T07:06:35.365Z,12.97
2022-12-11T07:09:07.703Z,17.00
2022-12-11T07:11:36.198Z,13.47
2022-12-11T07:14:04.890Z,17.57
2022-12-11T07:16:35.629Z,16.73
2022-12-11T07:19:04.918Z,19.20
2022-12-11T07:21:34.244Z,18.57
2022-12-11T07:24:02.794Z,13.63
2022-12-11T07:26:33.021Z,15.70
2022-12-11T07:29:01.826Z,13.97
2022-12-11T07:31:31.964Z,14.77
2022-12-11T07:34:03.040Z,9.40
2022-12-11T07:36:32.681Z,5.00
2022-12-11T07:39:01.775Z,11.53
2022-12-11T07:41:31.766Z,16.00
2022-12-11T07:44:04.036Z,9.90
2022-12-11T07:46:35.218Z,11.93
2022-12-11T07:49:06.704Z,17.43
2022-12-11T07:51:37.947Z,13.40
2022-12-11T07:54:08.926Z,12.40
2022-12-11T07:56:37.606Z,11.93
2022-12-11T07:59:08.368Z,14.17
2022-12-11T08:01:38.597Z,13.40
2022-12-11T08:04:10.103Z,16.57
2022-12-11T08:06:42.304Z,14.00
2022-12-11T08:09:17.426Z,17.20
2022-12-11T08:11:50.292Z,15.47
2022-12-11T08:14:21.983Z,13.67
2022-12-11T08:16:51.028Z,16.40
2022-12-11T08:19:19.546Z,19.80
2022-12-11T08:21:47.966Z,15.00
2022-12-11T08:24:21.415Z,15.00
2022-12-11T08:26:50.403Z,14.70
2022-12-11T08:29:21.976Z,13.90
2022-12-11T08:31:50.596Z,18.43
2022-12-11T08:34:19.545Z,18.40
2022-12-11T08:36:48.565Z,13.93
2022-12-11T08:39:17.086Z,14.30
2022-12-11T08:41:45.674Z,14.40
2022-12-11T08:44:16.994Z,14.97
2022-12-11T08:46:49.799Z,14.33
2022-12-11T08:49:18.516Z,11.83
2022-12-11T08:51:47.653Z,14.63
2022-12-11T08:54:18.514Z,19.53
2022-12-11T08:56:47.336Z,12.07
2022-12-11T08:59:15.948Z,19.13
2022-12-11T09:01:44.734Z,13.40
2022-12-11T09:04:16.770Z,14.47
2022-12-11T09:06:45.834Z,9.83
2022-12-11T09:09:16.374Z,14.63
2022-12-11T09:11:45.801Z,19.77
2022-12-11T09:14:16.222Z,17.90
2022-12-11T09:16:45.868Z,18.93
2022-12-11T09:19:20.413Z,20.30
2022-12-11T09:21:52.029Z,18.03
2022-12-11T09:24:21.728Z,18.23
2022-12-11T09:26:55.634Z,12.97
2022-12-11T09:29:25.340Z,10.90
2022-12-11T09:31:55.385Z,21.70
2022-12-11T09:34:29.371Z,19.43
2022-12-11T09:36:59.918Z,21.40
2022-12-11T09:39:29.041Z,18.10
2022-12-11T09:42:08.556Z,22.47
2022-12-11T09:44:47.045Z,17.80
2022-12-11T09:47:35.122Z,21.80
2022-12-11T09:50:19.479Z,16.03
2022-12-11T09:52:58.386Z,19.80
2022-12-11T09:55:31.556Z,18.20
2022-12-11T09:58:08.233Z,14.57
2022-12-11T10:00:43.067Z,24.00
2022-12-11T10:03:43.685Z,19.07
2022-12-11T10:06:22.944Z,21.17
2022-12-11T10:09:02.039Z,16.77
2022-12-11T10:11:57.113Z,23.70
2022-12-11T10:14:38.469Z,17.10
2022-12-11T10:17:16.030Z,17.87
2022-12-11T10:19:46.147Z,18.50
2022-12-11T10:22:22.871Z,20.67
2022-12-11T10:25:13.016Z,17.23
2022-12-11T10:27:45.251Z,21.17
2022-12-11T10:30:18.385Z,6.60
2022-12-11T10:32:56.066Z,20.90
2022-12-11T10:35:35.716Z,19.23
2022-12-11T10:38:17.020Z,24.70
2022-12-11T10:40:51.208Z,11.37
2022-12-11T10:43:21.245Z,12.30
2022-12-11T10:45:56.191Z,17.90
2022-12-11T10:48:27.854Z,17.83
2022-12-11T10:51:02.869Z,16.30
2022-12-11T10:53:36.027Z,17.03
2022-12-11T10:56:05.355Z,16.30
2022-12-11T10:58:39.379Z,18.60
2022-12-11T11:01:11.031Z,21.40
2022-12-11T11:03:55.421Z,20.30
2022-12-11T11:06:26.242Z,17.60
2022-12-11T11:09:00.819Z,13.90
2022-12-11T11:11:33.835Z,12.73
2022-12-11T11:14:18.091Z,20.43
2022-12-11T11:16:50.282Z,18.40
2022-12-11T11:19:26.133Z,17.50
2022-12-11T11:21:58.380Z,18.67
2022-12-11T11:24:37.750Z,18.60
2022-12-11T11:27:15.856Z,22.73
2022-12-11T11:29:48.966Z,14.67
2022-12-11T11:32:27.360Z,18.50
2022-12-11T11:35:16.732Z,16.87
2022-12-11T11:37:48.880Z,15.60
2022-12-11T11:40:26.142Z,16.50
2022-12-11T11:43:08.576Z,13.73
2022-12-11T11:45:47.590Z,16.17
2022-12-11T11:48:32.291Z,19.10
2022-12-11T11:51:07.348Z,15.10
2022-12-11T11:53:41.467Z,16.57
2022-12-11T11:56:23.312Z,17.83
2022-12-11T11:59:02.303Z,20.03
2022-12-11T12:01:31.701Z,21.77
2022-12-11T12:04:04.485Z,18.83
2022-12-11T12:07:13.210Z,15.27
2022-12-11T12:09:53.102Z,16.70
2022-12-11T12:12:35.805Z,23.10
2022-12-11T12:15:18.371Z,17.07
2022-12-11T12:17:55.978Z,16.37
2022-12-11T12:20:40.052Z,17.57
2022-12-11T12:23:34.921Z,16.17
2022-12-11T12:26:13.856Z,18.27
2022-12-11T12:28:54.182Z,16.80
2022-12-11T12:31:39.281Z,18.43
2022-12-11T12:34:20.218Z,15.63
2022-12-11T12:36:57.269Z,15.13
2022-12-11T12:39:34.256Z,19.03
2022-12-11T12:42:13.143Z,13.43
2022-12-11T12:44:56.168Z,14.57
2022-12-11T12:47:25.851Z,15.80
2022-12-11T12:49:55.787Z,17.07
2022-12-11T12:52:35.684Z,20.40
2022-12-11T12:55:19.153Z,18.23
2022-12-11T12:57:53.309Z,16.03
2022-12-11T13:00:37.393Z,15.10
2022-12-11T13:03:15.834Z,13.40
2022-12-11T13:05:50.250Z,22.83
2022-12-11T13:08:30.733Z,24.07
2022-12-11T13:11:03.798Z,22.07
2022-12-11T13:13:36.656Z,20.50
2022-12-11T13:16:27.377Z,20.93
2022-12-11T13:18:58.597Z,20.27
2022-12-11T13:21:33.703Z,18.37
2022-12-11T13:24:18.072Z,19.70
2022-12-11T13:26:50.908Z,17.97
2022-12-11T13:29:36.847Z,16.47
2022-12-11T13:32:24.832Z,15.93
2022-12-11T13:34:57.605Z,16.60
2022-12-11T13:37:35.113Z,20.10
2022-12-11T13:40:10.344Z,18.80
2022-12-11T13:42:50.957Z,15.13
2022-12-11T13:45:24.392Z,15.03
2022-12-11T13:47:56.249Z,20.43
2022-12-11T13:50:30.187Z,28.30
2022-12-11T13:53:00.842Z,20.90
2022-12-11T13:55:31.521Z,19.77
2022-12-11T13:58:00.888Z,9.33
2022-12-11T14:00:33.124Z,13.83
2022-12-11T14:03:07.758Z,15.00
2022-12-11T14:05:37.498Z,9.90
2022-12-11T14:08:10.487Z,16.67
2022-12-11T14:10:41.573Z,14.93
2022-12-11T14:13:22.019Z,15.43
2022-12-11T14:15:51.636Z,20.03
2022-12-11T14:18:25.558Z,17.17
2022-12-11T14:20:58.313Z,18.87
2022-12-11T14:23:30.686Z,17.23
2022-12-11T14:26:00.906Z,19.07
2022-12-11T14:28:37.889Z,12.30
2022-12-11T14:31:15.435Z,18.53
2022-12-11T14:33:49.713Z,15.53
2022-12-11T14:36:18.754Z,17.60
2022-12-11T14:38:51.572Z,15.87
2022-12-11T14:41:29.026Z,15.97
2022-12-11T14:44:01.964Z,11.07
2022-12-11T14:46:42.014Z,19.67
2022-12-11T14:49:24.007Z,16.23
2022-12-11T14:51:55.306Z,15.60
2022-12-11T14:54:31.322Z,21.13
2022-12-11T14:57:06.171Z,15.90
2022-12-11T14:59:47.310Z,17.47
2022-12-11T15:02:31.342Z,13.83
2022-12-11T15:05:16.338Z,20.70
2022-12-11T15:07:55.134Z,20.50
2022-12-11T15:10:27.643Z,16.60
2022-12-11T15:12:56.430Z,16.90
2022-12-11T15:15:25.514Z,16.20
2022-12-11T15:17:54.693Z,20.37
2022-12-11T15:20:28.024Z,20.87
2022-12-11T15:23:01.777Z,19.00
2022-12-11T15:25:32.702Z,19.13
2022-12-11T15:28:02.631Z,24.30
2022-12-11T15:30:35.923Z,17.53
2022-12-11T15:33:22.292Z,21.73
2022-12-11T15:36:24.579Z,16.97
2022-12-11T15:38:54.715Z,13.10
2022-12-11T15:41:24.685Z,18.10
2022-12-11T15:43:58.527Z,21.60
2022-12-11T15:46:27.853Z,19.80
2022-12-11T15:48:58.223Z,25.17
2022-12-11T15:51:42.513Z,20.77
2022-12-11T15:54:11.711Z,19.37
2022-12-11T15:56:41.515Z,20.63
2022-12-11T15:59:13.103Z,20.17
2022-12-11T16:01:42.348Z,25.37
2022-12-11T16:04:14.177Z,18.60
2022-12-11T16:06:46.851Z,19.63
2022-12-11T16:09:15.530Z,20.97
2022-12-11T16:11:49.138Z,20.57
2022-12-11T16:14:17.954Z,20.93
2022-12-11T16:16:47.497Z,23.93
2022-12-11T16:19:16.385Z,21.03
2022-12-11T16:21:46.229Z,16.70
2022-12-11T16:24:16.661Z,17.43
2022-12-11T16:26:45.168Z,14.60
2022-12-11T16:29:13.744Z,23.60
2022-12-11T16:31:43.035Z,16.87
2022-12-11T16:34:12.824Z,19.00
2022-12-11T16:36:41.632Z,20.33
2022-12-11T16:39:12.459Z,19.83
2022-12-11T16:41:42.286Z,19.30
2022-12-11T16:44:12.137Z,25.37
2022-12-11T16:46:41.145Z,16.07
2022-12-11T16:49:09.681Z,15.90
2022-12-11T16:51:38.633Z,21.80
2022-12-11T16:54:07.200Z,21.17
2022-12-11T16:56:38.464Z,20.20
2022-12-11T16:59:07.166Z,20.57
2022-12-11T17:01:36.529Z,19.03
2022-12-11T17:04:07.005Z,20.10
2022-12-11T17:06:36.033Z,27.57
2022-12-11T17:09:06.226Z,20.00
2022-12-11T17:11:38.937Z,19.40
2022-12-11T17:14:09.020Z,22.53
2022-12-11T17:16:38.352Z,21.07
2022-12-11T17:19:09.922Z,27.43
2022-12-11T17:21:38.381Z,25.13
2022-12-11T17:24:08.909Z,22.90
2022-12-11T17:26:39.554Z,25.80
2022-12-11T17:29:08.716Z,18.83
2022-12-11T17:31:37.332Z,21.50
2022-12-11T17:34:06.265Z,20.77
2022-12-11T17:36:36.790Z,23.33
2022-12-11T17:39:05.543Z,19.00
2022-12-11T17:41:35.562Z,21.63
2022-12-11T17:44:06.031Z,19.83
2022-12-11T17:46:35.913Z,24.83
2022-12-11T17:49:06.092Z,23.73
2022-12-11T17:51:36.218Z,22.60
2022-12-11T17:54:05.005Z,23.40
2022-12-11T17:56:36.235Z,24.90
2022-12-11T17:59:07.037Z,17.97
2022-12-11T18:01:35.828Z,24.87
2022-12-11T18:04:06.214Z,23.60
2022-12-11T18:06:36.937Z,25.63
2022-12-11T18:09:05.670Z,22.70
2022-12-11T18:11:35.959Z,22.23
2022-12-11T18:14:04.749Z,21.60
2022-12-11T18:16:38.363Z,22.77
2022-12-11T18:19:09.583Z,22.30
2022-12-11T18:21:43.350Z,18.80
2022-12-11T18:24:12.554Z,18.60
2022-12-11T18:26:42.919Z,21.73
2022-12-11T18:29:11.820Z,25.27
2022-12-11T18:31:43.410Z,25.27
2022-12-11T18:34:12.496Z,24.50
2022-12-11T18:36:42.021Z,22.03
2022-12-11T18:39:11.528Z,16.77
2022-12-11T18:41:39.954Z,19.20
2022-12-11T18:44:10.114Z,20.00
2022-12-11T18:46:39.802Z,19.37
2022-12-11T18:49:12.178Z,18.30
2022-12-11T18:51:42.113Z,19.00
2022-12-11T18:54:11.195Z,21.43
2022-12-11T18:56:41.975Z,25.47
2022-12-11T18:59:13.845Z,19.70
2022-12-11T19:01:42.843Z,20.87
2022-12-11T19:04:12.733Z,21.33
2022-12-11T19:06:41.691Z,18.83
2022-12-11T19:09:10.409Z,15.83
2022-12-11T19:11:44.128Z,18.60
2022-12-11T19:14:14.526Z,19.70
2022-12-11T19:16:46.464Z,15.43
2022-12-11T19:19:19.634Z,20.07
2022-12-11T19:21:51.140Z,22.27
2022-12-11T19:24:22.979Z,21.63
2022-12-11T19:26:53.219Z,17.37
2022-12-11T19:29:23.832Z,19.63
2022-12-11T19:31:53.974Z,20.23
2022-12-11T19:34:27.132Z,24.50
2022-12-11T19:36:56.883Z,14.63
2022-12-11T19:39:25.696Z,22.13
2022-12-11T19:41:55.338Z,22.47
2022-12-11T19:44:24.022Z,20.97
2022-12-11T19:46:54.218Z,16.67
2022-12-11T19:49:28.161Z,17.10
2022-12-11T19:51:58.067Z,17.80
2022-12-11T19:54:29.052Z,19.53
2022-12-11T19:56:57.827Z,16.80
2022-12-11T19:59:26.375Z,14.23
2022-12-11T20:01:55.029Z,17.47
2022-12-11T20:04:29.933Z,16.50
2022-12-11T20:06:58.850Z,17.90
2022-12-11T20:09:27.728Z,19.10
2022-12-11T20:11:56.599Z,21.53
2022-12-11T20:14:27.737Z,18.20
2022-12-11T20:17:13.884Z,19.43
2022-12-11T20:19:44.712Z,18.83
2022-12-11T20:22:13.625Z,18.43
2022-12-11T20:28:27.554Z,18.97
2022-12-11T20:31:04.472Z,19.73
2022-12-11T20:33:33.214Z,20.90
2022-12-11T20:36:07.204Z,16.37
2022-12-11T20:38:36.238Z,19.33
2022-12-11T20:41:07.361Z,21.20
2022-12-11T20:43:36.340Z,15.40
2022-12-11T20:46:08.236Z,17.77
2022-12-11T20:48:37.488Z,22.90
2022-12-11T20:51:11.218Z,24.77
2022-12-11T20:53:41.291Z,36.53
2022-12-11T20:56:11.992Z,22.50
2022-12-11T20:58:42.993Z,21.17
2022-12-11T21:01:15.335Z,16.00
2022-12-11T21:03:44.454Z,19.67
2022-12-11T21:06:21.397Z,15.70
2022-12-11T21:08:50.057Z,18.80
2022-12-11T21:11:20.243Z,12.20
2022-12-11T21:13:52.583Z,15.07
2022-12-11T21:16:21.966Z,15.63
2022-12-11T21:18:50.801Z,15.57
2022-12-11T21:21:21.097Z,18.47
2022-12-11T21:23:49.471Z,23.03
2022-12-11T21:26:18.905Z,18.03
2022-12-11T21:28:48.923Z,16.50
2022-12-11T21:31:20.753Z,13.50
2022-12-11T21:33:49.985Z,14.03
2022-12-11T21:36:23.980Z,18.37
2022-12-11T21:38:53.978Z,15.87
2022-12-11T21:41:25.042Z,14.60
2022-12-11T21:46:44.547Z,14.47
2022-12-11T21:49:13.334Z,16.10
2022-12-11T21:51:47.208Z,13.27
2022-12-11T21:54:21.224Z,15.93
2022-12-11T21:56:51.034Z,10.67
2022-12-11T21:59:20.705Z,10.57
2022-12-11T22:01:49.587Z,13.50
2022-12-11T22:04:19.549Z,15.93
2022-12-11T22:06:51.123Z,25.10
2022-12-11T22:09:20.401Z,21.73
2022-12-11T22:11:51.515Z,16.20
2022-12-11T22:14:23.320Z,17.87
2022-12-11T22:16:54.112Z,14.40
2022-12-11T22:19:23.961Z,11.07
2022-12-11T22:21:55.613Z,15.43
2022-12-11T22:24:26.131Z,14.70
2022-12-11T22:26:55.326Z,16.27
2022-12-11T22:29:23.494Z,12.97
2022-12-11T22:31:52.869Z,9.90
2022-12-11T22:34:21.501Z,13.43
2022-12-11T22:36:51.200Z,10.43
2022-12-11T22:39:20.935Z,14.07
2022-12-11T22:41:53.233Z,13.30
2022-12-11T22:44:23.822Z,13.70
2022-12-11T22:46:52.989Z,12.20
2022-12-11T22:49:24.265Z,16.50
2022-12-11T22:51:53.557Z,16.40
2022-12-11T22:54:24.269Z,13.70
2022-12-11T22:56:52.721Z,11.63
2022-12-11T22:59:21.553Z,16.23
2022-12-11T23:01:50.774Z,13.10
2022-12-11T23:04:22.302Z,12.70
2022-12-11T23:06:50.566Z,13.10
2022-12-11T23:09:19.356Z,12.77
2022-12-11T23:11:49.185Z,14.13
2022-12-11T23:14:20.411Z,14.13
2022-12-11T23:16:48.732Z,14.60
2022-12-11T23:19:22.273Z,12.23
2022-12-11T23:21:55.477Z,12.07
2022-12-11T23:24:27.024Z,11.47
2022-12-11T23:26:57.281Z,10.70
2022-12-11T23:29:27.864Z,14.60
2022-12-11T23:31:56.823Z,19.00
2022-12-11T23:34:25.419Z,14.40
2022-12-11T23:36:53.795Z,10.90
2022-12-11T23:39:21.970Z,15.73
2022-12-11T23:41:51.415Z,13.60
2022-12-11T23:44:21.773Z,11.17
2022-12-11T23:46:50.378Z,11.27
2022-12-11T23:49:20.758Z,12.90
2022-12-11T23:51:49.595Z,11.60
2022-12-11T23:54:18.383Z,16.03
2022-12-11T23:56:46.782Z,13.17
2022-12-11T23:59:15.857Z,13.37
